This is the latest recevied weather packets stored in our database for station/object IT9CYW-12. If no packets are shown the sender has not sent any weather packets the latest 1 day(s).
| Time | Temp. | Humidity | Pressure | Rain* | Wind** | Luminosity | Snow |
|---|---|---|---|---|---|---|---|
| 1778074127 | 19.44° C | 60% | 976.5 hPa | - | - | 125 W/m² | - |
| 1778073227 | 18.89° C | 61% | 976.9 hPa | - | - | 114 W/m² | - |
| 1778069626 | 19.44° C | 57% | 976.9 hPa | - | - | 200 W/m² | - |
| 1778063330 | 23.89° C | 39% | 976.5 hPa | - | - | 421 W/m² | - |
| 1778062430 | 23.33° C | 42% | 976.5 hPa | - | - | 418 W/m² | - |
| 1778061530 | 22.22° C | 41% | 976.7 hPa | - | - | 338 W/m² | - |
| 1778059729 | 22.22° C | 43% | 976.5 hPa | - | - | 741 W/m² | - |
| 1778057929 | 19.44° C | 57% | 976.7 hPa | - | - | 126 W/m² | - |
| 1778056128 | 19.44° C | 57% | 976.5 hPa | - | - | 160 W/m² | - |
| 1778055228 | 20° C | 57% | 976.7 hPa | - | - | 178 W/m² | - |
| 1778054328 | 18.89° C | 59% | 976.7 hPa | - | - | 211 W/m² | - |
| 1778050726 | 19.44° C | 54% | 977.2 hPa | - | - | 138 W/m² | - |
| 1778049826 | 19.44° C | 44% | 977 hPa | - | - | 224 W/m² | - |
| 1778048926 | 18.33° C | 60% | 977.2 hPa | - | - | 201 W/m² | - |
| 1778048026 | 18.33° C | 57% | 977.5 hPa | - | - | 306 W/m² | - |
| 1778046225 | 16.67° C | 66% | 977.4 hPa | - | - | 39 W/m² | - |
| 1778036087 | 17.78° C | 54% | 976.9 hPa | - | - | 0 W/m² | - |
| 1778035187 | 17.22° C | 58% | 976.9 hPa | - | - | 0 W/m² | - |
| 1778034287 | 17.78° C | 59% | 976.5 hPa | - | - | 0 W/m² | - |
| 1778033387 | 17.22° C | 62% | 976.5 hPa | - | - | 0 W/m² | - |
| 1778032486 | 16.67° C | 65% | 976.5 hPa | - | - | 0 W/m² | - |
| 1778031586 | 16.67° C | 66% | 976.5 hPa | - | - | 0 W/m² | - |
| 1778029792 | 17.78° C | 61% | 976.2 hPa | - | - | 0 W/m² | - |
| 1778028892 | 17.22° C | 63% | 976.5 hPa | - | - | 0 W/m² | - |
| 1778027992 | 17.78° C | 61% | 976.5 hPa | - | - | 0 W/m² | - |
* Rain since midnight (hover to see other rain measurements)
** Current wind speed in m/s (hover to see current wind gust speed)